sensor_id;sensor_type;location;lat;lon;timestamp;P1;durP1;ratioP1;P2;durP2;ratioP2
51660;SDS011;37741;49.748;8.490;2023-04-03T00:00:48;7.88;;;3.60;;
51660;SDS011;37741;49.748;8.490;2023-04-03T00:03:14;6.50;;;3.53;;
51660;SDS011;37741;49.748;8.490;2023-04-03T00:05:41;6.05;;;3.45;;
51660;SDS011;37741;49.748;8.490;2023-04-03T00:08:06;6.75;;;3.28;;
51660;SDS011;37741;49.748;8.490;2023-04-03T00:10:34;4.50;;;2.88;;
51660;SDS011;37741;49.748;8.490;2023-04-03T00:13:01;6.10;;;3.58;;
51660;SDS011;37741;49.748;8.490;2023-04-03T00:15:27;6.57;;;3.60;;
51660;SDS011;37741;49.748;8.490;2023-04-03T00:17:53;5.68;;;3.28;;
51660;SDS011;37741;49.748;8.490;2023-04-03T00:20:18;6.18;;;3.22;;
51660;SDS011;37741;49.748;8.490;2023-04-03T00:22:44;6.00;;;3.45;;
51660;SDS011;37741;49.748;8.490;2023-04-03T00:25:10;6.70;;;3.67;;
51660;SDS011;37741;49.748;8.490;2023-04-03T00:27:37;8.55;;;3.78;;
51660;SDS011;37741;49.748;8.490;2023-04-03T00:30:04;6.65;;;3.42;;
51660;SDS011;37741;49.748;8.490;2023-04-03T00:32:30;9.15;;;4.63;;
51660;SDS011;37741;49.748;8.490;2023-04-03T00:34:56;9.02;;;3.45;;
51660;SDS011;37741;49.748;8.490;2023-04-03T00:37:22;6.88;;;3.60;;
51660;SDS011;37741;49.748;8.490;2023-04-03T00:39:47;5.88;;;3.33;;
51660;SDS011;37741;49.748;8.490;2023-04-03T00:42:13;6.18;;;3.42;;
51660;SDS011;37741;49.748;8.490;2023-04-03T00:47:05;6.85;;;3.80;;
51660;SDS011;37741;49.748;8.490;2023-04-03T00:49:33;6.22;;;3.50;;
51660;SDS011;37741;49.748;8.490;2023-04-03T00:51:59;7.25;;;3.17;;
51660;SDS011;37741;49.748;8.490;2023-04-03T00:54:25;6.35;;;3.67;;
51660;SDS011;37741;49.748;8.490;2023-04-03T00:56:51;7.15;;;3.33;;
51660;SDS011;37741;49.748;8.490;2023-04-03T00:59:21;5.65;;;3.33;;
51660;SDS011;37741;49.748;8.490;2023-04-03T01:01:52;6.50;;;3.38;;
51660;SDS011;37741;49.748;8.490;2023-04-03T01:09:24;6.10;;;2.75;;
51660;SDS011;37741;49.748;8.490;2023-04-03T01:11:51;4.95;;;3.00;;
51660;SDS011;37741;49.748;8.490;2023-04-03T01:14:16;4.55;;;2.60;;
51660;SDS011;37741;49.748;8.490;2023-04-03T01:16:42;4.53;;;2.72;;
51660;SDS011;37741;49.748;8.490;2023-04-03T01:19:08;5.68;;;2.90;;
51660;SDS011;37741;49.748;8.490;2023-04-03T01:21:47;4.18;;;2.40;;
51660;SDS011;37741;49.748;8.490;2023-04-03T01:24:32;6.20;;;2.92;;
51660;SDS011;37741;49.748;8.490;2023-04-03T01:27:05;5.18;;;3.17;;
51660;SDS011;37741;49.748;8.490;2023-04-03T01:29:33;5.18;;;2.63;;
51660;SDS011;37741;49.748;8.490;2023-04-03T01:31:59;4.47;;;2.30;;
51660;SDS011;37741;49.748;8.490;2023-04-03T01:34:26;5.18;;;2.70;;
51660;SDS011;37741;49.748;8.490;2023-04-03T01:36:52;5.80;;;2.58;;
51660;SDS011;37741;49.748;8.490;2023-04-03T01:39:18;5.10;;;2.72;;
51660;SDS011;37741;49.748;8.490;2023-04-03T01:41:44;4.72;;;2.85;;
51660;SDS011;37741;49.748;8.490;2023-04-03T01:44:10;4.57;;;2.53;;
51660;SDS011;37741;49.748;8.490;2023-04-03T01:46:36;3.60;;;2.17;;
51660;SDS011;37741;49.748;8.490;2023-04-03T01:49:02;3.92;;;2.03;;
51660;SDS011;37741;49.748;8.490;2023-04-03T01:51:29;4.82;;;2.47;;
51660;SDS011;37741;49.748;8.490;2023-04-03T01:53:55;4.05;;;2.00;;
51660;SDS011;37741;49.748;8.490;2023-04-03T01:56:21;4.53;;;2.60;;
51660;SDS011;37741;49.748;8.490;2023-04-03T01:58:47;5.75;;;2.35;;
51660;SDS011;37741;49.748;8.490;2023-04-03T02:01:13;3.60;;;2.05;;
51660;SDS011;37741;49.748;8.490;2023-04-03T02:03:38;4.63;;;2.20;;
51660;SDS011;37741;49.748;8.490;2023-04-03T02:06:04;4.05;;;2.08;;
51660;SDS011;37741;49.748;8.490;2023-04-03T02:08:30;3.65;;;2.00;;
51660;SDS011;37741;49.748;8.490;2023-04-03T02:10:56;5.95;;;1.80;;
51660;SDS011;37741;49.748;8.490;2023-04-03T02:13:21;3.92;;;1.80;;
51660;SDS011;37741;49.748;8.490;2023-04-03T02:15:47;4.28;;;1.95;;
51660;SDS011;37741;49.748;8.490;2023-04-03T02:18:12;4.25;;;2.35;;
51660;SDS011;37741;49.748;8.490;2023-04-03T02:20:39;3.47;;;1.98;;
51660;SDS011;37741;49.748;8.490;2023-04-03T02:23:04;2.85;;;1.63;;
51660;SDS011;37741;49.748;8.490;2023-04-03T02:25:31;3.70;;;2.15;;
51660;SDS011;37741;49.748;8.490;2023-04-03T02:27:57;4.45;;;1.98;;
51660;SDS011;37741;49.748;8.490;2023-04-03T02:30:23;3.47;;;1.65;;
51660;SDS011;37741;49.748;8.490;2023-04-03T02:32:48;4.05;;;1.80;;
51660;SDS011;37741;49.748;8.490;2023-04-03T02:35:14;2.50;;;1.75;;
51660;SDS011;37741;49.748;8.490;2023-04-03T02:37:40;2.58;;;1.80;;
51660;SDS011;37741;49.748;8.490;2023-04-03T02:40:06;3.38;;;2.00;;
51660;SDS011;37741;49.748;8.490;2023-04-03T02:42:33;4.25;;;1.80;;
51660;SDS011;37741;49.748;8.490;2023-04-03T02:44:59;3.78;;;2.10;;
51660;SDS011;37741;49.748;8.490;2023-04-03T02:47:25;4.05;;;1.88;;
51660;SDS011;37741;49.748;8.490;2023-04-03T02:49:52;3.63;;;1.98;;
51660;SDS011;37741;49.748;8.490;2023-04-03T02:52:23;3.55;;;1.70;;
51660;SDS011;37741;49.748;8.490;2023-04-03T02:54:49;4.10;;;1.90;;
51660;SDS011;37741;49.748;8.490;2023-04-03T02:57:14;3.30;;;1.70;;
51660;SDS011;37741;49.748;8.490;2023-04-03T02:59:40;4.88;;;2.00;;
51660;SDS011;37741;49.748;8.490;2023-04-03T03:02:06;2.58;;;1.60;;
51660;SDS011;37741;49.748;8.490;2023-04-03T03:04:33;3.30;;;1.65;;
51660;SDS011;37741;49.748;8.490;2023-04-03T03:06:59;4.18;;;1.98;;
51660;SDS011;37741;49.748;8.490;2023-04-03T03:09:25;3.85;;;1.92;;
51660;SDS011;37741;49.748;8.490;2023-04-03T03:11:51;2.80;;;1.60;;
51660;SDS011;37741;49.748;8.490;2023-04-03T03:14:17;3.88;;;1.90;;
51660;SDS011;37741;49.748;8.490;2023-04-03T03:16:43;4.63;;;1.77;;
51660;SDS011;37741;49.748;8.490;2023-04-03T03:19:09;4.13;;;1.88;;
51660;SDS011;37741;49.748;8.490;2023-04-03T03:21:35;3.50;;;2.10;;
51660;SDS011;37741;49.748;8.490;2023-04-03T03:24:00;4.03;;;1.83;;
51660;SDS011;37741;49.748;8.490;2023-04-03T03:26:26;3.33;;;1.85;;
51660;SDS011;37741;49.748;8.490;2023-04-03T03:28:52;4.38;;;2.50;;
51660;SDS011;37741;49.748;8.490;2023-04-03T03:31:18;2.83;;;1.85;;
51660;SDS011;37741;49.748;8.490;2023-04-03T03:33:43;4.28;;;2.45;;
51660;SDS011;37741;49.748;8.490;2023-04-03T03:36:09;4.28;;;2.30;;
51660;SDS011;37741;49.748;8.490;2023-04-03T03:38:35;3.67;;;2.05;;
51660;SDS011;37741;49.748;8.490;2023-04-03T03:41:01;4.78;;;1.75;;
51660;SDS011;37741;49.748;8.490;2023-04-03T03:43:27;3.78;;;2.10;;
51660;SDS011;37741;49.748;8.490;2023-04-03T03:45:53;4.18;;;2.00;;
51660;SDS011;37741;49.748;8.490;2023-04-03T03:48:19;2.70;;;1.60;;
51660;SDS011;37741;49.748;8.490;2023-04-03T03:50:46;3.90;;;2.00;;
51660;SDS011;37741;49.748;8.490;2023-04-03T03:53:12;2.72;;;1.70;;
51660;SDS011;37741;49.748;8.490;2023-04-03T03:55:37;2.97;;;2.00;;
51660;SDS011;37741;49.748;8.490;2023-04-03T03:58:03;4.55;;;2.30;;
51660;SDS011;37741;49.748;8.490;2023-04-03T04:00:29;3.45;;;2.03;;
51660;SDS011;37741;49.748;8.490;2023-04-03T04:02:55;3.72;;;2.00;;
51660;SDS011;37741;49.748;8.490;2023-04-03T04:05:21;3.42;;;2.05;;
51660;SDS011;37741;49.748;8.490;2023-04-03T04:07:47;3.97;;;1.83;;
51660;SDS011;37741;49.748;8.490;2023-04-03T04:10:12;2.92;;;2.00;;
51660;SDS011;37741;49.748;8.490;2023-04-03T04:12:38;3.80;;;1.80;;
51660;SDS011;37741;49.748;8.490;2023-04-03T04:15:04;3.15;;;1.80;;
51660;SDS011;37741;49.748;8.490;2023-04-03T04:17:30;2.95;;;1.80;;
51660;SDS011;37741;49.748;8.490;2023-04-03T04:19:56;2.53;;;1.70;;
51660;SDS011;37741;49.748;8.490;2023-04-03T04:22:22;3.85;;;1.85;;
51660;SDS011;37741;49.748;8.490;2023-04-03T04:24:47;3.58;;;2.00;;
51660;SDS011;37741;49.748;8.490;2023-04-03T04:27:13;2.78;;;2.15;;
51660;SDS011;37741;49.748;8.490;2023-04-03T04:29:38;3.33;;;1.80;;
51660;SDS011;37741;49.748;8.490;2023-04-03T04:32:04;3.67;;;1.58;;
51660;SDS011;37741;49.748;8.490;2023-04-03T04:34:30;4.30;;;1.98;;
51660;SDS011;37741;49.748;8.490;2023-04-03T04:36:55;2.80;;;1.77;;
51660;SDS011;37741;49.748;8.490;2023-04-03T04:39:21;5.72;;;2.58;;
51660;SDS011;37741;49.748;8.490;2023-04-03T04:41:47;4.53;;;1.77;;
51660;SDS011;37741;49.748;8.490;2023-04-03T04:44:12;4.35;;;2.08;;
51660;SDS011;37741;49.748;8.490;2023-04-03T04:46:38;3.72;;;1.95;;
51660;SDS011;37741;49.748;8.490;2023-04-03T04:49:03;5.03;;;1.90;;
51660;SDS011;37741;49.748;8.490;2023-04-03T04:51:29;2.85;;;2.03;;
51660;SDS011;37741;49.748;8.490;2023-04-03T04:53:55;3.13;;;2.03;;
51660;SDS011;37741;49.748;8.490;2023-04-03T04:56:20;5.22;;;1.98;;
51660;SDS011;37741;49.748;8.490;2023-04-03T04:58:46;3.10;;;1.67;;
51660;SDS011;37741;49.748;8.490;2023-04-03T05:01:12;4.80;;;1.90;;
51660;SDS011;37741;49.748;8.490;2023-04-03T05:03:38;4.93;;;2.10;;
51660;SDS011;37741;49.748;8.490;2023-04-03T05:06:03;4.55;;;1.88;;
51660;SDS011;37741;49.748;8.490;2023-04-03T05:08:30;3.90;;;2.28;;
51660;SDS011;37741;49.748;8.490;2023-04-03T05:10:56;3.50;;;1.98;;
51660;SDS011;37741;49.748;8.490;2023-04-03T05:13:22;3.75;;;1.98;;
51660;SDS011;37741;49.748;8.490;2023-04-03T05:15:47;4.50;;;1.98;;
51660;SDS011;37741;49.748;8.490;2023-04-03T05:18:13;3.97;;;2.28;;
51660;SDS011;37741;49.748;8.490;2023-04-03T05:20:38;5.03;;;2.05;;
51660;SDS011;37741;49.748;8.490;2023-04-03T05:23:04;2.92;;;1.98;;
51660;SDS011;37741;49.748;8.490;2023-04-03T05:25:31;4.18;;;2.35;;
51660;SDS011;37741;49.748;8.490;2023-04-03T05:27:56;4.07;;;1.80;;
51660;SDS011;37741;49.748;8.490;2023-04-03T05:30:25;4.75;;;2.58;;
51660;SDS011;37741;49.748;8.490;2023-04-03T05:33:00;3.50;;;2.15;;
51660;SDS011;37741;49.748;8.490;2023-04-03T05:35:26;4.00;;;2.20;;
51660;SDS011;37741;49.748;8.490;2023-04-03T05:37:52;5.57;;;2.50;;
51660;SDS011;37741;49.748;8.490;2023-04-03T05:40:17;8.55;;;2.55;;
51660;SDS011;37741;49.748;8.490;2023-04-03T05:42:43;4.20;;;2.42;;
51660;SDS011;37741;49.748;8.490;2023-04-03T05:45:09;3.83;;;2.30;;
51660;SDS011;37741;49.748;8.490;2023-04-03T05:47:35;3.50;;;2.30;;
51660;SDS011;37741;49.748;8.490;2023-04-03T05:50:01;3.28;;;2.30;;
51660;SDS011;37741;49.748;8.490;2023-04-03T05:52:27;4.38;;;2.47;;
51660;SDS011;37741;49.748;8.490;2023-04-03T05:54:53;3.78;;;2.03;;
51660;SDS011;37741;49.748;8.490;2023-04-03T05:57:19;4.68;;;2.90;;
51660;SDS011;37741;49.748;8.490;2023-04-03T05:59:46;6.07;;;2.30;;
51660;SDS011;37741;49.748;8.490;2023-04-03T06:02:13;4.03;;;2.38;;
51660;SDS011;37741;49.748;8.490;2023-04-03T06:04:41;3.95;;;2.30;;
51660;SDS011;37741;49.748;8.490;2023-04-03T06:07:08;5.45;;;3.00;;
51660;SDS011;37741;49.748;8.490;2023-04-03T06:09:47;5.68;;;2.63;;
51660;SDS011;37741;49.748;8.490;2023-04-03T06:12:14;5.28;;;2.45;;
51660;SDS011;37741;49.748;8.490;2023-04-03T06:14:40;3.72;;;1.85;;
51660;SDS011;37741;49.748;8.490;2023-04-03T06:17:06;3.90;;;1.98;;
51660;SDS011;37741;49.748;8.490;2023-04-03T06:19:33;4.07;;;2.08;;
51660;SDS011;37741;49.748;8.490;2023-04-03T06:21:58;4.45;;;2.35;;
51660;SDS011;37741;49.748;8.490;2023-04-03T06:24:25;3.75;;;1.95;;
51660;SDS011;37741;49.748;8.490;2023-04-03T06:26:51;3.72;;;2.00;;
51660;SDS011;37741;49.748;8.490;2023-04-03T06:29:17;3.03;;;1.63;;
51660;SDS011;37741;49.748;8.490;2023-04-03T06:31:44;3.78;;;2.20;;
51660;SDS011;37741;49.748;8.490;2023-04-03T06:34:10;8.85;;;3.53;;
51660;SDS011;37741;49.748;8.490;2023-04-03T06:36:36;4.07;;;2.00;;
51660;SDS011;37741;49.748;8.490;2023-04-03T06:39:02;4.50;;;1.85;;
51660;SDS011;37741;49.748;8.490;2023-04-03T06:41:28;3.78;;;2.10;;
51660;SDS011;37741;49.748;8.490;2023-04-03T06:43:54;3.90;;;2.00;;
51660;SDS011;37741;49.748;8.490;2023-04-03T06:46:22;4.68;;;1.85;;
51660;SDS011;37741;49.748;8.490;2023-04-03T06:48:49;5.35;;;1.80;;
51660;SDS011;37741;49.748;8.490;2023-04-03T06:51:25;5.30;;;1.75;;
51660;SDS011;37741;49.748;8.490;2023-04-03T06:53:53;7.28;;;2.10;;
51660;SDS011;37741;49.748;8.490;2023-04-03T06:56:19;9.70;;;2.20;;
51660;SDS011;37741;49.748;8.490;2023-04-03T06:58:46;5.93;;;2.03;;
51660;SDS011;37741;49.748;8.490;2023-04-03T07:01:12;5.20;;;2.03;;
51660;SDS011;37741;49.748;8.490;2023-04-03T07:03:39;4.25;;;1.73;;
51660;SDS011;37741;49.748;8.490;2023-04-03T07:06:05;3.33;;;1.63;;
51660;SDS011;37741;49.748;8.490;2023-04-03T07:08:32;4.82;;;1.67;;
51660;SDS011;37741;49.748;8.490;2023-04-03T07:10:58;4.13;;;1.58;;
51660;SDS011;37741;49.748;8.490;2023-04-03T07:13:24;3.97;;;1.45;;
51660;SDS011;37741;49.748;8.490;2023-04-03T07:15:50;5.38;;;2.30;;
51660;SDS011;37741;49.748;8.490;2023-04-03T07:18:16;6.90;;;1.75;;
51660;SDS011;37741;49.748;8.490;2023-04-03T07:20:44;4.25;;;1.38;;
51660;SDS011;37741;49.748;8.490;2023-04-03T07:23:10;10.52;;;2.10;;
51660;SDS011;37741;49.748;8.490;2023-04-03T07:25:36;5.40;;;1.77;;
51660;SDS011;37741;49.748;8.490;2023-04-03T07:28:06;5.72;;;1.77;;
51660;SDS011;37741;49.748;8.490;2023-04-03T07:30:33;4.00;;;1.42;;
51660;SDS011;37741;49.748;8.490;2023-04-03T07:32:58;3.80;;;1.58;;
51660;SDS011;37741;49.748;8.490;2023-04-03T07:35:24;5.55;;;2.05;;
51660;SDS011;37741;49.748;8.490;2023-04-03T07:37:49;4.85;;;1.90;;
51660;SDS011;37741;49.748;8.490;2023-04-03T07:40:15;6.57;;;1.77;;
51660;SDS011;37741;49.748;8.490;2023-04-03T07:42:41;5.45;;;1.52;;
51660;SDS011;37741;49.748;8.490;2023-04-03T07:45:09;4.55;;;1.60;;
51660;SDS011;37741;49.748;8.490;2023-04-03T07:47:43;5.43;;;1.70;;
51660;SDS011;37741;49.748;8.490;2023-04-03T07:50:09;2.92;;;1.63;;
51660;SDS011;37741;49.748;8.490;2023-04-03T07:52:34;29.25;;;3.63;;
51660;SDS011;37741;49.748;8.490;2023-04-03T07:55:00;14.15;;;3.08;;
51660;SDS011;37741;49.748;8.490;2023-04-03T07:57:26;14.32;;;3.13;;
51660;SDS011;37741;49.748;8.490;2023-04-03T07:59:51;11.93;;;2.38;;
51660;SDS011;37741;49.748;8.490;2023-04-03T08:02:17;5.97;;;1.77;;
51660;SDS011;37741;49.748;8.490;2023-04-03T08:04:42;14.52;;;2.55;;
51660;SDS011;37741;49.748;8.490;2023-04-03T08:07:08;13.32;;;2.80;;
51660;SDS011;37741;49.748;8.490;2023-04-03T08:09:33;8.27;;;1.65;;
51660;SDS011;37741;49.748;8.490;2023-04-03T08:11:59;8.55;;;2.03;;
51660;SDS011;37741;49.748;8.490;2023-04-03T08:14:26;5.63;;;2.17;;
51660;SDS011;37741;49.748;8.490;2023-04-03T08:16:51;8.82;;;2.35;;
51660;SDS011;37741;49.748;8.490;2023-04-03T08:19:17;6.60;;;1.90;;
51660;SDS011;37741;49.748;8.490;2023-04-03T08:21:43;7.68;;;2.00;;
51660;SDS011;37741;49.748;8.490;2023-04-03T08:24:10;4.80;;;2.25;;
51660;SDS011;37741;49.748;8.490;2023-04-03T08:26:35;6.30;;;2.10;;
51660;SDS011;37741;49.748;8.490;2023-04-03T08:29:01;3.67;;;1.90;;
51660;SDS011;37741;49.748;8.490;2023-04-03T08:31:27;4.63;;;2.35;;
51660;SDS011;37741;49.748;8.490;2023-04-03T08:33:53;6.75;;;1.92;;
51660;SDS011;37741;49.748;8.490;2023-04-03T08:36:20;4.82;;;1.52;;
51660;SDS011;37741;49.748;8.490;2023-04-03T08:38:51;7.20;;;1.48;;
51660;SDS011;37741;49.748;8.490;2023-04-03T08:46:53;6.20;;;2.00;;
51660;SDS011;37741;49.748;8.490;2023-04-03T08:52:19;5.50;;;1.92;;
51660;SDS011;37741;49.748;8.490;2023-04-03T08:54:59;7.10;;;1.60;;
51660;SDS011;37741;49.748;8.490;2023-04-03T08:57:28;12.18;;;2.03;;
51660;SDS011;37741;49.748;8.490;2023-04-03T09:00:01;6.45;;;1.88;;
51660;SDS011;37741;49.748;8.490;2023-04-03T09:05:14;4.50;;;1.65;;
51660;SDS011;37741;49.748;8.490;2023-04-03T09:07:44;7.85;;;2.40;;
51660;SDS011;37741;49.748;8.490;2023-04-03T09:10:13;8.00;;;2.22;;
51660;SDS011;37741;49.748;8.490;2023-04-03T09:12:44;10.63;;;2.72;;
51660;SDS011;37741;49.748;8.490;2023-04-03T09:15:22;8.30;;;3.03;;
51660;SDS011;37741;49.748;8.490;2023-04-03T09:23:44;9.02;;;3.78;;
51660;SDS011;37741;49.748;8.490;2023-04-03T09:26:17;8.90;;;3.50;;
51660;SDS011;37741;49.748;8.490;2023-04-03T09:28:46;6.72;;;3.35;;
51660;SDS011;37741;49.748;8.490;2023-04-03T09:31:19;7.40;;;3.88;;
51660;SDS011;37741;49.748;8.490;2023-04-03T09:33:56;10.05;;;3.58;;
51660;SDS011;37741;49.748;8.490;2023-04-03T09:36:37;6.00;;;2.90;;
51660;SDS011;37741;49.748;8.490;2023-04-03T09:39:13;7.82;;;3.10;;
51660;SDS011;37741;49.748;8.490;2023-04-03T09:42:03;7.75;;;3.03;;
51660;SDS011;37741;49.748;8.490;2023-04-03T09:45:02;5.53;;;2.33;;
51660;SDS011;37741;49.748;8.490;2023-04-03T09:47:30;5.95;;;2.67;;
51660;SDS011;37741;49.748;8.490;2023-04-03T09:52:42;8.80;;;2.53;;
51660;SDS011;37741;49.748;8.490;2023-04-03T09:55:17;3.40;;;1.90;;
51660;SDS011;37741;49.748;8.490;2023-04-03T09:57:43;5.18;;;2.42;;
51660;SDS011;37741;49.748;8.490;2023-04-03T10:00:21;4.78;;;1.75;;
51660;SDS011;37741;49.748;8.490;2023-04-03T10:02:49;4.80;;;2.05;;
51660;SDS011;37741;49.748;8.490;2023-04-03T10:08:06;4.97;;;1.90;;
51660;SDS011;37741;49.748;8.490;2023-04-03T10:10:35;3.35;;;1.88;;
51660;SDS011;37741;49.748;8.490;2023-04-03T10:15:39;4.05;;;1.70;;
51660;SDS011;37741;49.748;8.490;2023-04-03T10:18:20;3.50;;;2.00;;
51660;SDS011;37741;49.748;8.490;2023-04-03T10:21:08;3.33;;;1.58;;
51660;SDS011;37741;49.748;8.490;2023-04-03T10:24:06;4.90;;;1.92;;
51660;SDS011;37741;49.748;8.490;2023-04-03T10:26:56;3.85;;;1.50;;
51660;SDS011;37741;49.748;8.490;2023-04-03T10:29:40;3.42;;;1.67;;
51660;SDS011;37741;49.748;8.490;2023-04-03T10:35:08;3.83;;;1.50;;
51660;SDS011;37741;49.748;8.490;2023-04-03T10:41:25;3.78;;;1.50;;
51660;SDS011;37741;49.748;8.490;2023-04-03T10:43:36;5.13;;;1.80;;
51660;SDS011;37741;49.748;8.490;2023-04-03T10:49:00;4.95;;;1.83;;
51660;SDS011;37741;49.748;8.490;2023-04-03T10:54:24;4.57;;;1.70;;
51660;SDS011;37741;49.748;8.490;2023-04-03T10:57:00;3.58;;;1.60;;
51660;SDS011;37741;49.748;8.490;2023-04-03T10:59:37;3.58;;;1.60;;
51660;SDS011;37741;49.748;8.490;2023-04-03T11:02:18;4.03;;;2.20;;
51660;SDS011;37741;49.748;8.490;2023-04-03T11:05:01;4.22;;;1.25;;
51660;SDS011;37741;49.748;8.490;2023-04-03T11:07:51;3.80;;;1.40;;
51660;SDS011;37741;49.748;8.490;2023-04-03T11:10:39;2.97;;;1.63;;
51660;SDS011;37741;49.748;8.490;2023-04-03T11:13:11;2.42;;;1.20;;
51660;SDS011;37741;49.748;8.490;2023-04-03T11:15:42;3.33;;;1.60;;
51660;SDS011;37741;49.748;8.490;2023-04-03T11:18:11;4.95;;;1.40;;
51660;SDS011;37741;49.748;8.490;2023-04-03T11:20:46;3.20;;;1.45;;
51660;SDS011;37741;49.748;8.490;2023-04-03T11:23:30;5.38;;;1.42;;
51660;SDS011;37741;49.748;8.490;2023-04-03T11:26:06;3.22;;;1.10;;
51660;SDS011;37741;49.748;8.490;2023-04-03T11:28:37;2.50;;;1.10;;
51660;SDS011;37741;49.748;8.490;2023-04-03T11:36:45;2.22;;;0.93;;
51660;SDS011;37741;49.748;8.490;2023-04-03T11:39:20;4.68;;;1.40;;
51660;SDS011;37741;49.748;8.490;2023-04-03T11:41:55;3.13;;;1.23;;
51660;SDS011;37741;49.748;8.490;2023-04-03T11:44:38;3.55;;;1.13;;
51660;SDS011;37741;49.748;8.490;2023-04-03T11:47:05;3.30;;;1.20;;
51660;SDS011;37741;49.748;8.490;2023-04-03T12:05:50;5.18;;;2.00;;
51660;SDS011;37741;49.748;8.490;2023-04-03T12:16:21;4.00;;;1.33;;
51660;SDS011;37741;49.748;8.490;2023-04-03T12:26:50;3.73;;;1.23;;
51660;SDS011;37741;49.748;8.490;2023-04-03T12:29:28;1.95;;;0.82;;
51660;SDS011;37741;49.748;8.490;2023-04-03T12:40:39;2.77;;;1.20;;
51660;SDS011;37741;49.748;8.490;2023-04-03T12:46:03;4.80;;;1.85;;
51660;SDS011;37741;49.748;8.490;2023-04-03T12:48:30;4.60;;;1.65;;
51660;SDS011;37741;49.748;8.490;2023-04-03T12:50:59;3.33;;;1.40;;
51660;SDS011;37741;49.748;8.490;2023-04-03T12:53:31;4.28;;;1.40;;
51660;SDS011;37741;49.748;8.490;2023-04-03T12:56:18;2.15;;;1.20;;
51660;SDS011;37741;49.748;8.490;2023-04-03T12:58:51;4.35;;;1.88;;
51660;SDS011;37741;49.748;8.490;2023-04-03T13:01:25;3.35;;;1.15;;
51660;SDS011;37741;49.748;8.490;2023-04-03T13:03:57;5.80;;;1.25;;
51660;SDS011;37741;49.748;8.490;2023-04-03T13:06:26;4.55;;;1.42;;
51660;SDS011;37741;49.748;8.490;2023-04-03T13:08:57;5.05;;;1.40;;
51660;SDS011;37741;49.748;8.490;2023-04-03T13:11:25;2.42;;;1.02;;
51660;SDS011;37741;49.748;8.490;2023-04-03T13:13:58;3.05;;;1.10;;
51660;SDS011;37741;49.748;8.490;2023-04-03T13:16:25;2.80;;;1.33;;
51660;SDS011;37741;49.748;8.490;2023-04-03T13:18:52;4.53;;;1.35;;
51660;SDS011;37741;49.748;8.490;2023-04-03T13:21:21;2.50;;;1.33;;
51660;SDS011;37741;49.748;8.490;2023-04-03T13:23:54;2.75;;;1.27;;
51660;SDS011;37741;49.748;8.490;2023-04-03T13:26:22;2.30;;;1.30;;
51660;SDS011;37741;49.748;8.490;2023-04-03T13:28:51;2.20;;;1.00;;
51660;SDS011;37741;49.748;8.490;2023-04-03T13:31:25;2.60;;;1.20;;
51660;SDS011;37741;49.748;8.490;2023-04-03T13:36:24;6.00;;;1.35;;
51660;SDS011;37741;49.748;8.490;2023-04-03T13:39:02;4.78;;;1.20;;
51660;SDS011;37741;49.748;8.490;2023-04-03T13:41:55;2.72;;;1.10;;
51660;SDS011;37741;49.748;8.490;2023-04-03T13:46:56;3.75;;;1.20;;
51660;SDS011;37741;49.748;8.490;2023-04-03T13:49:34;2.03;;;0.95;;
51660;SDS011;37741;49.748;8.490;2023-04-03T13:55:01;2.58;;;1.08;;
51660;SDS011;37741;49.748;8.490;2023-04-03T13:57:36;2.00;;;1.02;;
51660;SDS011;37741;49.748;8.490;2023-04-03T14:03:29;3.67;;;1.48;;
51660;SDS011;37741;49.748;8.490;2023-04-03T14:06:05;3.08;;;1.48;;
51660;SDS011;37741;49.748;8.490;2023-04-03T14:08:33;2.72;;;1.23;;
51660;SDS011;37741;49.748;8.490;2023-04-03T14:10:59;4.28;;;1.73;;
51660;SDS011;37741;49.748;8.490;2023-04-03T14:13:25;3.42;;;1.33;;
51660;SDS011;37741;49.748;8.490;2023-04-03T14:15:50;2.67;;;1.20;;
51660;SDS011;37741;49.748;8.490;2023-04-03T14:18:17;2.15;;;1.00;;
51660;SDS011;37741;49.748;8.490;2023-04-03T14:20:44;2.92;;;1.17;;
51660;SDS011;37741;49.748;8.490;2023-04-03T14:23:10;3.25;;;1.90;;
51660;SDS011;37741;49.748;8.490;2023-04-03T14:25:36;2.38;;;0.95;;
51660;SDS011;37741;49.748;8.490;2023-04-03T14:28:19;3.03;;;1.33;;
51660;SDS011;37741;49.748;8.490;2023-04-03T14:30:46;2.65;;;1.08;;
51660;SDS011;37741;49.748;8.490;2023-04-03T14:33:14;4.03;;;1.20;;
51660;SDS011;37741;49.748;8.490;2023-04-03T14:35:45;2.70;;;1.00;;
51660;SDS011;37741;49.748;8.490;2023-04-03T14:38:17;4.25;;;1.30;;
51660;SDS011;37741;49.748;8.490;2023-04-03T14:40:53;2.92;;;1.00;;
51660;SDS011;37741;49.748;8.490;2023-04-03T14:43:21;2.35;;;0.93;;
51660;SDS011;37741;49.748;8.490;2023-04-03T14:45:47;2.90;;;1.00;;
51660;SDS011;37741;49.748;8.490;2023-04-03T14:48:21;2.97;;;1.48;;
51660;SDS011;37741;49.748;8.490;2023-04-03T14:50:49;2.38;;;0.90;;
51660;SDS011;37741;49.748;8.490;2023-04-03T14:53:17;2.92;;;0.82;;
51660;SDS011;37741;49.748;8.490;2023-04-03T14:55:47;4.10;;;1.15;;
51660;SDS011;37741;49.748;8.490;2023-04-03T14:58:15;2.42;;;1.10;;
51660;SDS011;37741;49.748;8.490;2023-04-03T15:00:43;2.58;;;1.63;;
51660;SDS011;37741;49.748;8.490;2023-04-03T15:03:16;2.30;;;0.98;;
51660;SDS011;37741;49.748;8.490;2023-04-03T15:05:44;4.28;;;1.60;;
51660;SDS011;37741;49.748;8.490;2023-04-03T15:10:43;3.65;;;1.80;;
51660;SDS011;37741;49.748;8.490;2023-04-03T15:13:10;4.75;;;1.83;;
51660;SDS011;37741;49.748;8.490;2023-04-03T15:15:37;4.13;;;1.35;;
51660;SDS011;37741;49.748;8.490;2023-04-03T15:18:03;3.10;;;1.42;;
51660;SDS011;37741;49.748;8.490;2023-04-03T15:20:29;2.03;;;1.08;;
51660;SDS011;37741;49.748;8.490;2023-04-03T15:22:55;3.08;;;1.70;;
51660;SDS011;37741;49.748;8.490;2023-04-03T15:25:22;7.18;;;1.90;;
51660;SDS011;37741;49.748;8.490;2023-04-03T15:27:48;4.32;;;1.80;;
51660;SDS011;37741;49.748;8.490;2023-04-03T15:30:15;3.30;;;1.50;;
51660;SDS011;37741;49.748;8.490;2023-04-03T15:32:42;3.67;;;1.25;;
51660;SDS011;37741;49.748;8.490;2023-04-03T15:35:08;3.72;;;1.23;;
51660;SDS011;37741;49.748;8.490;2023-04-03T15:37:34;3.15;;;1.67;;
51660;SDS011;37741;49.748;8.490;2023-04-03T15:40:00;2.53;;;1.15;;
51660;SDS011;37741;49.748;8.490;2023-04-03T15:42:26;3.80;;;1.20;;
51660;SDS011;37741;49.748;8.490;2023-04-03T15:44:51;2.33;;;1.17;;
51660;SDS011;37741;49.748;8.490;2023-04-03T15:47:17;3.58;;;1.40;;
51660;SDS011;37741;49.748;8.490;2023-04-03T15:49:43;6.05;;;1.52;;
51660;SDS011;37741;49.748;8.490;2023-04-03T15:52:08;2.65;;;1.40;;
51660;SDS011;37741;49.748;8.490;2023-04-03T15:54:34;3.03;;;1.30;;
51660;SDS011;37741;49.748;8.490;2023-04-03T15:57:02;3.10;;;1.40;;
51660;SDS011;37741;49.748;8.490;2023-04-03T15:59:28;3.80;;;1.73;;
51660;SDS011;37741;49.748;8.490;2023-04-03T16:01:55;4.13;;;1.60;;
51660;SDS011;37741;49.748;8.490;2023-04-03T16:04:22;4.57;;;1.73;;
51660;SDS011;37741;49.748;8.490;2023-04-03T16:06:48;2.70;;;1.45;;
51660;SDS011;37741;49.748;8.490;2023-04-03T16:09:14;3.45;;;1.63;;
51660;SDS011;37741;49.748;8.490;2023-04-03T16:11:39;2.92;;;1.40;;
51660;SDS011;37741;49.748;8.490;2023-04-03T16:14:06;3.78;;;1.80;;
51660;SDS011;37741;49.748;8.490;2023-04-03T16:16:32;4.50;;;1.75;;
51660;SDS011;37741;49.748;8.490;2023-04-03T16:18:58;4.15;;;1.48;;
51660;SDS011;37741;49.748;8.490;2023-04-03T16:21:24;26.88;;;3.10;;
51660;SDS011;37741;49.748;8.490;2023-04-03T16:23:50;6.88;;;1.88;;
51660;SDS011;37741;49.748;8.490;2023-04-03T16:26:16;8.57;;;2.25;;
51660;SDS011;37741;49.748;8.490;2023-04-03T16:28:42;7.28;;;2.53;;
51660;SDS011;37741;49.748;8.490;2023-04-03T16:31:08;8.25;;;2.67;;
51660;SDS011;37741;49.748;8.490;2023-04-03T16:33:35;8.25;;;1.85;;
51660;SDS011;37741;49.748;8.490;2023-04-03T16:36:01;9.90;;;1.95;;
51660;SDS011;37741;49.748;8.490;2023-04-03T16:38:28;5.35;;;1.83;;
51660;SDS011;37741;49.748;8.490;2023-04-03T16:40:54;5.32;;;1.70;;
51660;SDS011;37741;49.748;8.490;2023-04-03T16:43:22;4.13;;;1.98;;